Blake Denton — WDC7496 — position and weather

sailwx.info

Track history (hours):
 
Tides and Currents Weather Stations Pressure Air Temp Water Temp Dewpoint Dewpoint Depression Visibility Wind Speed Wind Dir Waves Ship Positions

Blake Denton

More information available from US FCC via Universal Licensing System and Coast Guard Vessel Documentation Center.

Last reported at 2014-Aug-21 01:32 UTC. Time now 2014-Aug-30 10:31 UTC.
Position N 30°24' W 091°12'.
Warning: this ship's position is 9 days out of date.

Length 52 m.

Type: Towing. MMSI: 367072210.

Date/timePositionNaut miles runAvg speedWind from/ knotsBaromVisibWave heightAir tempDewpointWater temp
2014-Aug-21 01:32N 30°24' W 091°12'22 1.7
2014-Aug-20 12:33N 30°08' W 090°56'1 0.1
2014-Aug-20 04:14N 30°07' W 090°55'2 2.8
2014-Aug-20 03:26N 30°05' W 090°55'1 1.2
2014-Aug-20 02:31N 30°04' W 090°54'0 0.0
2014-Aug-20 01:33N 30°04' W 090°54'0 0.0
2014-Aug-20 00:29N 30°04' W 090°54'2 2.2
2014-Aug-19 23:34N 30°04' W 090°52'5 5.3
2014-Aug-19 22:33N 29°59' W 090°49'9 2.2
2014-Aug-19 18:31N 30°03' W 090°39'0 0.0
2014-Aug-19 17:31N 30°03' W 090°39'0 0.0
2014-Aug-19 15:31N 30°03' W 090°39'4 4.5
2014-Aug-19 14:33N 30°03' W 090°34'2 2.5
2014-Aug-19 13:33N 30°03' W 090°32'0 0.0
2014-Aug-19 12:33N 30°03' W 090°32'3 2.8
2014-Aug-19 11:33N 30°02' W 090°28'0 0.5
2014-Aug-19 10:33N 30°02' W 090°28'3 2.7
2014-Aug-19 09:33N 29°60' W 090°26'4 3.7
2014-Aug-19 08:26N 29°57' W 090°23'0 0.2
2014-Aug-19 07:30N 29°57' W 090°23'0 0.0
2014-Aug-19 06:23N 29°57' W 090°23'0 0.0
2014-Aug-19 03:33N 29°57' W 090°23'1 0.5
2014-Aug-19 02:12N 29°57' W 090°22'  
2014-Aug-14 13:19N 29°54' W 090°05'0 0.0
2014-Aug-14 12:33N 29°54' W 090°05'0 0.0
2014-Aug-14 11:33N 29°54' W 090°05'0 0.0
2014-Aug-14 10:15N 29°54' W 090°05'  
2014-Aug-11 12:29N 29°54' W 090°05'0 0.0
2014-Aug-11 11:09N 29°54' W 090°05'0 0.0
2014-Aug-11 10:33N 29°54' W 090°05'0 0.0
2014-Aug-11 09:11N 29°54' W 090°05'0 0.0
2014-Aug-11 08:29N 29°54' W 090°05'0 0.0
2014-Aug-11 07:33N 29°54' W 090°05'0 0.0
2014-Aug-11 06:25N 29°54' W 090°05'0 0.0
2014-Aug-11 05:25N 29°54' W 090°05'0 0.0
2014-Aug-11 03:33N 29°54' W 090°05'  
Track history (hours):
 
Tides and Currents Weather Stations Pressure Air Temp Water Temp Dewpoint Dewpoint Depression Visibility Wind Speed Wind Dir Waves Ship Positions

Blake Denton

More information available from US FCC via Universal Licensing System and Coast Guard Vessel Documentation Center.

Last reported at 2014-Aug-21 01:32 UTC. Time now 2014-Aug-30 10:31 UTC.
Position N 30°24' W 091°12'.
Warning: this ship's position is 9 days out of date.

Length 52 m.

Type: Towing. MMSI: 367072210.

Date/timePositionNaut miles runAvg speedWind from/ knotsBaromVisibWave heightAir tempDewpointWater temp
2014-Aug-21 01:32N 30°24' W 091°12'22 1.7
2014-Aug-20 12:33N 30°08' W 090°56'1 0.1
2014-Aug-20 04:14N 30°07' W 090°55'2 2.8
2014-Aug-20 03:26N 30°05' W 090°55'1 1.2
2014-Aug-20 02:31N 30°04' W 090°54'0 0.0
2014-Aug-20 01:33N 30°04' W 090°54'0 0.0
2014-Aug-20 00:29N 30°04' W 090°54'2 2.2
2014-Aug-19 23:34N 30°04' W 090°52'5 5.3
2014-Aug-19 22:33N 29°59' W 090°49'9 2.2
2014-Aug-19 18:31N 30°03' W 090°39'0 0.0
2014-Aug-19 17:31N 30°03' W 090°39'0 0.0
2014-Aug-19 15:31N 30°03' W 090°39'4 4.5
2014-Aug-19 14:33N 30°03' W 090°34'2 2.5
2014-Aug-19 13:33N 30°03' W 090°32'0 0.0
2014-Aug-19 12:33N 30°03' W 090°32'3 2.8
2014-Aug-19 11:33N 30°02' W 090°28'0 0.5
2014-Aug-19 10:33N 30°02' W 090°28'3 2.7
2014-Aug-19 09:33N 29°60' W 090°26'4 3.7
2014-Aug-19 08:26N 29°57' W 090°23'0 0.2
2014-Aug-19 07:30N 29°57' W 090°23'0 0.0
2014-Aug-19 06:23N 29°57' W 090°23'0 0.0
2014-Aug-19 03:33N 29°57' W 090°23'1 0.5
2014-Aug-19 02:12N 29°57' W 090°22'  
2014-Aug-14 13:19N 29°54' W 090°05'0 0.0
2014-Aug-14 12:33N 29°54' W 090°05'0 0.0
2014-Aug-14 11:33N 29°54' W 090°05'0 0.0
2014-Aug-14 10:15N 29°54' W 090°05'  
2014-Aug-11 12:29N 29°54' W 090°05'0 0.0
2014-Aug-11 11:09N 29°54' W 090°05'0 0.0
2014-Aug-11 10:33N 29°54' W 090°05'0 0.0
2014-Aug-11 09:11N 29°54' W 090°05'0 0.0
2014-Aug-11 08:29N 29°54' W 090°05'0 0.0
2014-Aug-11 07:33N 29°54' W 090°05'0 0.0
2014-Aug-11 06:25N 29°54' W 090°05'0 0.0
2014-Aug-11 05:25N 29°54' W 090°05'0 0.0
2014-Aug-11 03:33N 29°54' W 090°05'  

Dump ship's entire track history